sensor_id;sensor_type;location;lat;lon;timestamp;temperature;humidity
41694;DHT22;27377;50.666;9.150;2022-11-20T00:01:11;-0.80;99.90
41694;DHT22;27377;50.666;9.150;2022-11-20T00:03:37;-0.80;99.90
41694;DHT22;27377;50.666;9.150;2022-11-20T00:06:05;-0.80;99.90
41694;DHT22;27377;50.666;9.150;2022-11-20T00:08:30;-0.80;99.90
41694;DHT22;27377;50.666;9.150;2022-11-20T00:10:56;-0.80;99.90
41694;DHT22;27377;50.666;9.150;2022-11-20T00:13:21;-0.70;99.90
41694;DHT22;27377;50.666;9.150;2022-11-20T00:15:47;-0.70;99.90
41694;DHT22;27377;50.666;9.150;2022-11-20T00:18:13;-0.70;99.90
41694;DHT22;27377;50.666;9.150;2022-11-20T00:20:39;-0.70;99.90
41694;DHT22;27377;50.666;9.150;2022-11-20T00:23:04;-0.70;99.90
41694;DHT22;27377;50.666;9.150;2022-11-20T00:25:31;-0.70;99.90
41694;DHT22;27377;50.666;9.150;2022-11-20T00:27:56;-0.70;99.90
41694;DHT22;27377;50.666;9.150;2022-11-20T00:30:22;-0.80;99.90
41694;DHT22;27377;50.666;9.150;2022-11-20T00:32:47;-0.80;99.90
41694;DHT22;27377;50.666;9.150;2022-11-20T00:35:13;-0.70;99.90
41694;DHT22;27377;50.666;9.150;2022-11-20T00:37:38;-0.60;99.90
41694;DHT22;27377;50.666;9.150;2022-11-20T00:40:04;-0.60;99.90
41694;DHT22;27377;50.666;9.150;2022-11-20T00:42:30;-0.60;99.90
41694;DHT22;27377;50.666;9.150;2022-11-20T00:44:58;-0.60;99.90
41694;DHT22;27377;50.666;9.150;2022-11-20T00:47:23;-0.60;99.90
41694;DHT22;27377;50.666;9.150;2022-11-20T00:49:49;-0.60;99.90
41694;DHT22;27377;50.666;9.150;2022-11-20T00:52:14;-0.60;99.90
41694;DHT22;27377;50.666;9.150;2022-11-20T00:54:40;-0.60;99.90
41694;DHT22;27377;50.666;9.150;2022-11-20T00:57:05;-0.60;99.90
41694;DHT22;27377;50.666;9.150;2022-11-20T00:59:31;-0.50;99.90
41694;DHT22;27377;50.666;9.150;2022-11-20T01:01:56;-0.50;99.90
41694;DHT22;27377;50.666;9.150;2022-11-20T01:04:22;-0.50;99.90
41694;DHT22;27377;50.666;9.150;2022-11-20T01:06:47;-0.40;99.90
41694;DHT22;27377;50.666;9.150;2022-11-20T01:09:13;-0.40;99.90
41694;DHT22;27377;50.666;9.150;2022-11-20T01:11:41;-0.40;99.90
41694;DHT22;27377;50.666;9.150;2022-11-20T01:14:11;-0.30;99.90
41694;DHT22;27377;50.666;9.150;2022-11-20T01:16:39;-0.30;99.90
41694;DHT22;27377;50.666;9.150;2022-11-20T01:19:09;-0.30;99.90
41694;DHT22;27377;50.666;9.150;2022-11-20T01:21:37;-0.30;99.90
41694;DHT22;27377;50.666;9.150;2022-11-20T01:24:04;-0.30;99.90
41694;DHT22;27377;50.666;9.150;2022-11-20T01:26:33;-0.30;99.90
41694;DHT22;27377;50.666;9.150;2022-11-20T01:28:59;-0.30;99.90
41694;DHT22;27377;50.666;9.150;2022-11-20T01:31:27;-0.30;99.90
41694;DHT22;27377;50.666;9.150;2022-11-20T01:33:55;-0.30;99.90
41694;DHT22;27377;50.666;9.150;2022-11-20T01:36:24;-0.30;99.90
41694;DHT22;27377;50.666;9.150;2022-11-20T01:38:54;-0.30;99.90
41694;DHT22;27377;50.666;9.150;2022-11-20T01:41:20;-0.20;99.90
41694;DHT22;27377;50.666;9.150;2022-11-20T01:44:05;-0.20;99.90
41694;DHT22;27377;50.666;9.150;2022-11-20T01:46:37;-0.20;99.90
41694;DHT22;27377;50.666;9.150;2022-11-20T01:49:08;-0.20;99.90
41694;DHT22;27377;50.666;9.150;2022-11-20T01:51:42;-0.20;99.90
41694;DHT22;27377;50.666;9.150;2022-11-20T01:54:14;-0.30;99.90
41694;DHT22;27377;50.666;9.150;2022-11-20T01:56:44;-0.30;99.90
41694;DHT22;27377;50.666;9.150;2022-11-20T01:59:11;-0.30;99.90
41694;DHT22;27377;50.666;9.150;2022-11-20T02:01:38;-0.30;99.90
41694;DHT22;27377;50.666;9.150;2022-11-20T02:04:05;-0.20;99.90
41694;DHT22;27377;50.666;9.150;2022-11-20T02:06:38;-0.20;99.90
41694;DHT22;27377;50.666;9.150;2022-11-20T02:09:05;-0.10;99.90
41694;DHT22;27377;50.666;9.150;2022-11-20T02:11:32;-0.10;99.90
41694;DHT22;27377;50.666;9.150;2022-11-20T02:13:58;0.00;99.90
41694;DHT22;27377;50.666;9.150;2022-11-20T02:16:31;-0.10;99.90
41694;DHT22;27377;50.666;9.150;2022-11-20T02:19:00;-0.10;99.90
41694;DHT22;27377;50.666;9.150;2022-11-20T02:21:40;-0.10;99.90
41694;DHT22;27377;50.666;9.150;2022-11-20T02:24:11;-0.20;99.90
41694;DHT22;27377;50.666;9.150;2022-11-20T02:29:09;-0.10;99.90
41694;DHT22;27377;50.666;9.150;2022-11-20T02:31:37;0.00;99.90
41694;DHT22;27377;50.666;9.150;2022-11-20T02:34:03;0.10;99.90
41694;DHT22;27377;50.666;9.150;2022-11-20T02:36:32;0.10;99.90
41694;DHT22;27377;50.666;9.150;2022-11-20T02:38:59;0.10;99.90
41694;DHT22;27377;50.666;9.150;2022-11-20T02:41:45;0.10;99.90
41694;DHT22;27377;50.666;9.150;2022-11-20T02:44:13;0.10;99.90
41694;DHT22;27377;50.666;9.150;2022-11-20T02:46:39;0.10;99.90
41694;DHT22;27377;50.666;9.150;2022-11-20T02:49:05;0.10;99.90
41694;DHT22;27377;50.666;9.150;2022-11-20T02:51:31;0.10;99.90
41694;DHT22;27377;50.666;9.150;2022-11-20T02:53:57;0.20;99.90
41694;DHT22;27377;50.666;9.150;2022-11-20T02:56:23;0.20;99.90
41694;DHT22;27377;50.666;9.150;2022-11-20T02:58:49;0.20;99.90
41694;DHT22;27377;50.666;9.150;2022-11-20T03:01:15;0.30;99.90
41694;DHT22;27377;50.666;9.150;2022-11-20T03:03:44;0.30;99.90
41694;DHT22;27377;50.666;9.150;2022-11-20T03:06:09;0.30;99.90
41694;DHT22;27377;50.666;9.150;2022-11-20T03:08:35;0.20;99.90
41694;DHT22;27377;50.666;9.150;2022-11-20T03:11:06;0.20;99.90
41694;DHT22;27377;50.666;9.150;2022-11-20T03:13:32;0.20;99.90
41694;DHT22;27377;50.666;9.150;2022-11-20T03:16:12;0.20;99.90
41694;DHT22;27377;50.666;9.150;2022-11-20T03:18:39;0.20;99.90
41694;DHT22;27377;50.666;9.150;2022-11-20T03:21:06;0.20;99.90
41694;DHT22;27377;50.666;9.150;2022-11-20T03:23:32;0.20;99.90
41694;DHT22;27377;50.666;9.150;2022-11-20T03:26:18;0.20;99.90
41694;DHT22;27377;50.666;9.150;2022-11-20T03:28:58;0.20;99.90
41694;DHT22;27377;50.666;9.150;2022-11-20T03:31:29;0.20;99.90
41694;DHT22;27377;50.666;9.150;2022-11-20T03:33:56;0.30;99.90
41694;DHT22;27377;50.666;9.150;2022-11-20T03:36:26;0.30;99.90
41694;DHT22;27377;50.666;9.150;2022-11-20T03:38:54;0.30;99.90
41694;DHT22;27377;50.666;9.150;2022-11-20T03:41:25;0.30;99.90
41694;DHT22;27377;50.666;9.150;2022-11-20T03:43:54;0.40;99.90
41694;DHT22;27377;50.666;9.150;2022-11-20T03:46:20;0.30;99.90
41694;DHT22;27377;50.666;9.150;2022-11-20T03:48:46;0.30;99.90
41694;DHT22;27377;50.666;9.150;2022-11-20T03:51:18;0.30;99.90
41694;DHT22;27377;50.666;9.150;2022-11-20T03:53:48;0.30;99.90
41694;DHT22;27377;50.666;9.150;2022-11-20T03:56:16;0.30;99.90
41694;DHT22;27377;50.666;9.150;2022-11-20T03:58:42;0.30;99.90
41694;DHT22;27377;50.666;9.150;2022-11-20T04:01:19;0.40;99.90
41694;DHT22;27377;50.666;9.150;2022-11-20T04:03:45;0.50;99.90
41694;DHT22;27377;50.666;9.150;2022-11-20T04:06:20;0.50;99.90
41694;DHT22;27377;50.666;9.150;2022-11-20T04:08:45;0.50;99.90
41694;DHT22;27377;50.666;9.150;2022-11-20T04:11:20;0.40;99.90
41694;DHT22;27377;50.666;9.150;2022-11-20T04:13:51;0.40;99.90
41694;DHT22;27377;50.666;9.150;2022-11-20T04:16:17;0.40;99.90
41694;DHT22;27377;50.666;9.150;2022-11-20T04:18:43;0.40;99.90
41694;DHT22;27377;50.666;9.150;2022-11-20T04:21:10;0.40;99.90
41694;DHT22;27377;50.666;9.150;2022-11-20T04:23:36;0.40;99.90
41694;DHT22;27377;50.666;9.150;2022-11-20T04:26:09;0.40;99.90
41694;DHT22;27377;50.666;9.150;2022-11-20T04:28:36;0.40;99.90
41694;DHT22;27377;50.666;9.150;2022-11-20T04:31:25;0.30;99.90
41694;DHT22;27377;50.666;9.150;2022-11-20T04:33:51;0.40;99.90
41694;DHT22;27377;50.666;9.150;2022-11-20T04:36:25;0.40;99.90
41694;DHT22;27377;50.666;9.150;2022-11-20T04:38:55;0.40;99.90
41694;DHT22;27377;50.666;9.150;2022-11-20T04:41:23;0.40;99.90
41694;DHT22;27377;50.666;9.150;2022-11-20T04:43:50;0.40;99.90
41694;DHT22;27377;50.666;9.150;2022-11-20T04:46:17;0.40;99.90
41694;DHT22;27377;50.666;9.150;2022-11-20T04:48:43;0.50;99.90
41694;DHT22;27377;50.666;9.150;2022-11-20T04:51:09;0.50;99.90
41694;DHT22;27377;50.666;9.150;2022-11-20T04:53:35;0.40;99.90
41694;DHT22;27377;50.666;9.150;2022-11-20T04:56:06;0.50;99.90
41694;DHT22;27377;50.666;9.150;2022-11-20T04:58:32;0.50;99.90
41694;DHT22;27377;50.666;9.150;2022-11-20T05:01:06;0.50;99.90
41694;DHT22;27377;50.666;9.150;2022-11-20T05:03:32;0.50;99.90
41694;DHT22;27377;50.666;9.150;2022-11-20T05:06:04;0.50;99.90
41694;DHT22;27377;50.666;9.150;2022-11-20T05:08:30;0.50;99.90
41694;DHT22;27377;50.666;9.150;2022-11-20T05:11:04;0.50;99.90
41694;DHT22;27377;50.666;9.150;2022-11-20T05:13:29;0.50;99.90
41694;DHT22;27377;50.666;9.150;2022-11-20T05:15:55;0.50;99.90
41694;DHT22;27377;50.666;9.150;2022-11-20T05:18:21;0.50;99.90
41694;DHT22;27377;50.666;9.150;2022-11-20T05:20:46;0.60;99.90
41694;DHT22;27377;50.666;9.150;2022-11-20T05:23:12;0.50;99.90
41694;DHT22;27377;50.666;9.150;2022-11-20T05:25:37;0.60;99.90
41694;DHT22;27377;50.666;9.150;2022-11-20T05:28:03;0.50;99.90
41694;DHT22;27377;50.666;9.150;2022-11-20T05:30:29;0.50;99.90
41694;DHT22;27377;50.666;9.150;2022-11-20T05:32:54;0.50;99.90
41694;DHT22;27377;50.666;9.150;2022-11-20T05:35:20;0.50;99.90
41694;DHT22;27377;50.666;9.150;2022-11-20T05:37:45;0.50;99.90
41694;DHT22;27377;50.666;9.150;2022-11-20T05:40:11;0.50;99.90
41694;DHT22;27377;50.666;9.150;2022-11-20T05:42:37;0.60;99.90
41694;DHT22;27377;50.666;9.150;2022-11-20T05:45:04;0.60;99.90
41694;DHT22;27377;50.666;9.150;2022-11-20T05:47:33;0.60;99.90
41694;DHT22;27377;50.666;9.150;2022-11-20T05:49:59;0.60;99.90
41694;DHT22;27377;50.666;9.150;2022-11-20T05:52:28;0.60;99.90
41694;DHT22;27377;50.666;9.150;2022-11-20T05:54:53;0.60;99.90
41694;DHT22;27377;50.666;9.150;2022-11-20T05:57:19;0.60;99.90
41694;DHT22;27377;50.666;9.150;2022-11-20T05:59:44;0.70;99.90
41694;DHT22;27377;50.666;9.150;2022-11-20T06:02:10;0.70;99.90
41694;DHT22;27377;50.666;9.150;2022-11-20T06:04:36;0.70;99.90
41694;DHT22;27377;50.666;9.150;2022-11-20T06:07:01;0.70;99.90
41694;DHT22;27377;50.666;9.150;2022-11-20T06:09:27;0.70;99.90
41694;DHT22;27377;50.666;9.150;2022-11-20T06:11:52;0.70;99.90
41694;DHT22;27377;50.666;9.150;2022-11-20T06:14:18;0.70;99.90
41694;DHT22;27377;50.666;9.150;2022-11-20T06:16:43;0.70;99.90
41694;DHT22;27377;50.666;9.150;2022-11-20T06:19:09;0.70;99.90
41694;DHT22;27377;50.666;9.150;2022-11-20T06:21:34;0.80;99.90
41694;DHT22;27377;50.666;9.150;2022-11-20T06:24:00;0.80;99.90
41694;DHT22;27377;50.666;9.150;2022-11-20T06:26:26;0.80;99.90
41694;DHT22;27377;50.666;9.150;2022-11-20T06:28:53;0.80;99.90
41694;DHT22;27377;50.666;9.150;2022-11-20T06:31:22;0.90;99.90
41694;DHT22;27377;50.666;9.150;2022-11-20T06:33:49;0.90;99.90
41694;DHT22;27377;50.666;9.150;2022-11-20T06:36:16;0.90;99.90
41694;DHT22;27377;50.666;9.150;2022-11-20T06:38:42;1.00;99.90
41694;DHT22;27377;50.666;9.150;2022-11-20T06:41:16;0.90;99.90
41694;DHT22;27377;50.666;9.150;2022-11-20T06:43:42;1.00;99.90
41694;DHT22;27377;50.666;9.150;2022-11-20T06:46:09;1.00;99.90
41694;DHT22;27377;50.666;9.150;2022-11-20T06:48:35;0.90;99.90
41694;DHT22;27377;50.666;9.150;2022-11-20T06:51:06;0.90;99.90
41694;DHT22;27377;50.666;9.150;2022-11-20T06:53:33;0.90;99.90
41694;DHT22;27377;50.666;9.150;2022-11-20T06:55:59;0.90;99.90
41694;DHT22;27377;50.666;9.150;2022-11-20T06:58:27;0.90;99.90
41694;DHT22;27377;50.666;9.150;2022-11-20T07:00:53;0.90;99.90
41694;DHT22;27377;50.666;9.150;2022-11-20T07:03:19;0.90;99.90
41694;DHT22;27377;50.666;9.150;2022-11-20T07:05:44;0.90;99.90
41694;DHT22;27377;50.666;9.150;2022-11-20T07:08:11;0.90;99.90
41694;DHT22;27377;50.666;9.150;2022-11-20T07:10:37;0.90;99.90
41694;DHT22;27377;50.666;9.150;2022-11-20T07:13:03;0.80;99.90
41694;DHT22;27377;50.666;9.150;2022-11-20T07:15:29;0.80;99.90
41694;DHT22;27377;50.666;9.150;2022-11-20T07:17:55;0.80;99.90
41694;DHT22;27377;50.666;9.150;2022-11-20T07:20:20;0.80;99.90
41694;DHT22;27377;50.666;9.150;2022-11-20T07:22:46;0.90;99.90
41694;DHT22;27377;50.666;9.150;2022-11-20T07:25:12;0.90;99.90
41694;DHT22;27377;50.666;9.150;2022-11-20T07:27:37;0.90;99.90
41694;DHT22;27377;50.666;9.150;2022-11-20T07:30:03;0.90;99.90
41694;DHT22;27377;50.666;9.150;2022-11-20T07:32:29;0.90;99.90
41694;DHT22;27377;50.666;9.150;2022-11-20T07:34:55;0.90;99.90
41694;DHT22;27377;50.666;9.150;2022-11-20T07:37:20;0.90;99.90
41694;DHT22;27377;50.666;9.150;2022-11-20T07:39:46;0.90;99.90
41694;DHT22;27377;50.666;9.150;2022-11-20T07:42:11;0.90;99.90
41694;DHT22;27377;50.666;9.150;2022-11-20T07:44:37;1.00;99.90
41694;DHT22;27377;50.666;9.150;2022-11-20T07:47:03;1.00;99.90
41694;DHT22;27377;50.666;9.150;2022-11-20T07:49:29;1.00;99.90
41694;DHT22;27377;50.666;9.150;2022-11-20T07:51:54;1.00;99.90
41694;DHT22;27377;50.666;9.150;2022-11-20T07:54:21;1.00;99.90
41694;DHT22;27377;50.666;9.150;2022-11-20T07:56:47;1.00;99.90
41694;DHT22;27377;50.666;9.150;2022-11-20T07:59:12;1.00;99.90
41694;DHT22;27377;50.666;9.150;2022-11-20T08:01:42;1.10;99.90
41694;DHT22;27377;50.666;9.150;2022-11-20T08:04:08;1.00;99.90
41694;DHT22;27377;50.666;9.150;2022-11-20T08:06:35;1.10;99.90
41694;DHT22;27377;50.666;9.150;2022-11-20T08:09:01;1.10;99.90
41694;DHT22;27377;50.666;9.150;2022-11-20T08:11:26;1.00;99.90
41694;DHT22;27377;50.666;9.150;2022-11-20T08:14:11;1.00;99.90
41694;DHT22;27377;50.666;9.150;2022-11-20T08:16:40;1.00;99.90
41694;DHT22;27377;50.666;9.150;2022-11-20T08:19:05;1.10;99.90
41694;DHT22;27377;50.666;9.150;2022-11-20T08:21:31;1.10;99.90
41694;DHT22;27377;50.666;9.150;2022-11-20T08:23:58;1.10;99.90
41694;DHT22;27377;50.666;9.150;2022-11-20T08:26:24;1.10;99.90
41694;DHT22;27377;50.666;9.150;2022-11-20T08:28:53;1.10;99.90
41694;DHT22;27377;50.666;9.150;2022-11-20T08:31:20;1.10;99.90
41694;DHT22;27377;50.666;9.150;2022-11-20T08:33:46;1.20;99.90
41694;DHT22;27377;50.666;9.150;2022-11-20T08:36:11;1.20;99.90
41694;DHT22;27377;50.666;9.150;2022-11-20T08:38:37;1.20;99.90
41694;DHT22;27377;50.666;9.150;2022-11-20T08:41:04;1.20;99.90
41694;DHT22;27377;50.666;9.150;2022-11-20T08:44:04;1.20;99.90
41694;DHT22;27377;50.666;9.150;2022-11-20T08:46:35;1.20;99.90
41694;DHT22;27377;50.666;9.150;2022-11-20T08:49:07;1.20;99.90
41694;DHT22;27377;50.666;9.150;2022-11-20T08:51:33;1.20;99.90
41694;DHT22;27377;50.666;9.150;2022-11-20T08:53:59;1.20;99.90
41694;DHT22;27377;50.666;9.150;2022-11-20T08:56:25;1.20;99.90
41694;DHT22;27377;50.666;9.150;2022-11-20T08:58:51;1.30;99.90
41694;DHT22;27377;50.666;9.150;2022-11-20T09:01:21;1.30;99.90
41694;DHT22;27377;50.666;9.150;2022-11-20T09:03:47;1.30;99.90
41694;DHT22;27377;50.666;9.150;2022-11-20T09:06:13;1.40;99.90
41694;DHT22;27377;50.666;9.150;2022-11-20T09:08:41;1.40;99.90
41694;DHT22;27377;50.666;9.150;2022-11-20T09:11:07;1.50;99.90
41694;DHT22;27377;50.666;9.150;2022-11-20T09:13:34;1.50;99.90
41694;DHT22;27377;50.666;9.150;2022-11-20T09:16:06;1.50;99.90
41694;DHT22;27377;50.666;9.150;2022-11-20T09:18:33;1.50;99.90
41694;DHT22;27377;50.666;9.150;2022-11-20T09:21:03;1.50;99.90
41694;DHT22;27377;50.666;9.150;2022-11-20T09:23:34;1.50;99.90
41694;DHT22;27377;50.666;9.150;2022-11-20T09:26:18;1.50;99.90
41694;DHT22;27377;50.666;9.150;2022-11-20T09:28:44;1.50;99.90
41694;DHT22;27377;50.666;9.150;2022-11-20T09:31:28;1.50;99.90
41694;DHT22;27377;50.666;9.150;2022-11-20T09:33:54;1.60;99.90
41694;DHT22;27377;50.666;9.150;2022-11-20T09:36:20;1.60;99.90
41694;DHT22;27377;50.666;9.150;2022-11-20T09:38:46;1.60;99.90
41694;DHT22;27377;50.666;9.150;2022-11-20T09:41:32;1.70;99.90
41694;DHT22;27377;50.666;9.150;2022-11-20T09:52:44;1.70;99.90
41694;DHT22;27377;50.666;9.150;2022-11-20T09:55:14;1.70;99.90
41694;DHT22;27377;50.666;9.150;2022-11-20T09:57:46;1.70;99.90
41694;DHT22;27377;50.666;9.150;2022-11-20T10:00:14;1.80;99.90
41694;DHT22;27377;50.666;9.150;2022-11-20T10:05:18;1.80;99.90
41694;DHT22;27377;50.666;9.150;2022-11-20T10:08:07;1.80;99.90
41694;DHT22;27377;50.666;9.150;2022-11-20T10:10:46;1.80;99.90
41694;DHT22;27377;50.666;9.150;2022-11-20T10:22:08;1.90;99.90
41694;DHT22;27377;50.666;9.150;2022-11-20T10:24:48;1.90;99.90
41694;DHT22;27377;50.666;9.150;2022-11-20T10:27:56;2.00;99.90
41694;DHT22;27377;50.666;9.150;2022-11-20T10:30:36;2.00;99.90
41694;DHT22;27377;50.666;9.150;2022-11-20T10:35:49;2.00;99.90
41694;DHT22;27377;50.666;9.150;2022-11-20T10:38:26;2.00;99.90
41694;DHT22;27377;50.666;9.150;2022-11-20T10:40:57;2.00;99.90
41694;DHT22;27377;50.666;9.150;2022-11-20T10:43:43;2.00;99.90
41694;DHT22;27377;50.666;9.150;2022-11-20T10:46:16;2.00;99.90
41694;DHT22;27377;50.666;9.150;2022-11-20T10:48:47;2.00;99.90
41694;DHT22;27377;50.666;9.150;2022-11-20T10:52:30;2.10;99.90
41694;DHT22;27377;50.666;9.150;2022-11-20T11:00:12;2.20;99.90
41694;DHT22;27377;50.666;9.150;2022-11-20T11:02:45;2.30;99.90
41694;DHT22;27377;50.666;9.150;2022-11-20T11:07:45;2.30;99.90
41694;DHT22;27377;50.666;9.150;2022-11-20T11:10:21;2.30;99.90
41694;DHT22;27377;50.666;9.150;2022-11-20T11:12:48;2.30;99.90
41694;DHT22;27377;50.666;9.150;2022-11-20T11:15:36;2.30;99.90
41694;DHT22;27377;50.666;9.150;2022-11-20T11:18:02;2.30;99.90
41694;DHT22;27377;50.666;9.150;2022-11-20T11:20:27;2.30;99.90
41694;DHT22;27377;50.666;9.150;2022-11-20T11:22:58;2.30;99.90
41694;DHT22;27377;50.666;9.150;2022-11-20T11:25:30;2.30;99.90
41694;DHT22;27377;50.666;9.150;2022-11-20T11:27:58;2.30;99.90
41694;DHT22;27377;50.666;9.150;2022-11-20T11:30:26;2.30;99.90
41694;DHT22;27377;50.666;9.150;2022-11-20T11:33:03;2.30;99.90
41694;DHT22;27377;50.666;9.150;2022-11-20T11:35:29;2.30;99.90
41694;DHT22;27377;50.666;9.150;2022-11-20T11:38:04;2.30;99.90
41694;DHT22;27377;50.666;9.150;2022-11-20T11:40:32;2.40;99.90
41694;DHT22;27377;50.666;9.150;2022-11-20T11:43:01;2.40;99.90
41694;DHT22;27377;50.666;9.150;2022-11-20T11:45:27;2.40;99.90
41694;DHT22;27377;50.666;9.150;2022-11-20T11:47:56;2.40;99.90
41694;DHT22;27377;50.666;9.150;2022-11-20T11:50:24;2.40;99.90
41694;DHT22;27377;50.666;9.150;2022-11-20T11:53:09;2.40;99.90
41694;DHT22;27377;50.666;9.150;2022-11-20T11:55:56;2.50;99.90
41694;DHT22;27377;50.666;9.150;2022-11-20T11:58:44;2.50;99.90
41694;DHT22;27377;50.666;9.150;2022-11-20T12:01:32;2.50;99.90
41694;DHT22;27377;50.666;9.150;2022-11-20T12:04:16;2.50;99.90
41694;DHT22;27377;50.666;9.150;2022-11-20T12:06:45;2.50;99.90
41694;DHT22;27377;50.666;9.150;2022-11-20T12:09:12;2.50;99.90
41694;DHT22;27377;50.666;9.150;2022-11-20T12:11:49;2.50;99.90
41694;DHT22;27377;50.666;9.150;2022-11-20T12:14:21;2.50;99.90
41694;DHT22;27377;50.666;9.150;2022-11-20T12:16:50;2.50;99.90
41694;DHT22;27377;50.666;9.150;2022-11-20T12:19:17;2.50;99.90
41694;DHT22;27377;50.666;9.150;2022-11-20T12:24:42;2.50;99.90
41694;DHT22;27377;50.666;9.150;2022-11-20T12:30:23;2.60;99.90
41694;DHT22;27377;50.666;9.150;2022-11-20T12:33:11;2.60;99.90
41694;DHT22;27377;50.666;9.150;2022-11-20T12:36:12;2.60;99.90
41694;DHT22;27377;50.666;9.150;2022-11-20T12:41:48;2.60;99.90
41694;DHT22;27377;50.666;9.150;2022-11-20T12:45:02;2.60;99.90
41694;DHT22;27377;50.666;9.150;2022-11-20T13:02:01;2.70;99.90
41694;DHT22;27377;50.666;9.150;2022-11-20T13:04:50;2.70;99.90
41694;DHT22;27377;50.666;9.150;2022-11-20T13:07:21;2.70;99.90
41694;DHT22;27377;50.666;9.150;2022-11-20T13:09:50;2.70;99.90
41694;DHT22;27377;50.666;9.150;2022-11-20T13:12:34;2.70;99.90
41694;DHT22;27377;50.666;9.150;2022-11-20T13:15:09;2.70;99.90
41694;DHT22;27377;50.666;9.150;2022-11-20T13:17:58;2.70;99.90
41694;DHT22;27377;50.666;9.150;2022-11-20T13:20:24;2.70;99.90
41694;DHT22;27377;50.666;9.150;2022-11-20T13:22:52;2.70;99.90
41694;DHT22;27377;50.666;9.150;2022-11-20T13:25:34;2.70;99.90
41694;DHT22;27377;50.666;9.150;2022-11-20T13:30:35;2.70;99.90
41694;DHT22;27377;50.666;9.150;2022-11-20T13:33:04;2.70;99.90
41694;DHT22;27377;50.666;9.150;2022-11-20T13:35:34;2.80;99.90
41694;DHT22;27377;50.666;9.150;2022-11-20T13:38:20;2.80;99.90
41694;DHT22;27377;50.666;9.150;2022-11-20T13:40:52;2.80;99.90
41694;DHT22;27377;50.666;9.150;2022-11-20T13:43:35;2.80;99.90
41694;DHT22;27377;50.666;9.150;2022-11-20T13:46:05;2.80;99.90
41694;DHT22;27377;50.666;9.150;2022-11-20T13:48:44;2.80;99.90
41694;DHT22;27377;50.666;9.150;2022-11-20T13:53:52;2.80;99.90
41694;DHT22;27377;50.666;9.150;2022-11-20T14:01:46;2.80;99.90
41694;DHT22;27377;50.666;9.150;2022-11-20T14:04:23;2.80;99.90
41694;DHT22;27377;50.666;9.150;2022-11-20T14:06:51;2.80;99.90
41694;DHT22;27377;50.666;9.150;2022-11-20T14:09:31;2.80;99.90
41694;DHT22;27377;50.666;9.150;2022-11-20T14:11:57;2.80;99.90
41694;DHT22;27377;50.666;9.150;2022-11-20T14:14:28;2.80;99.90
41694;DHT22;27377;50.666;9.150;2022-11-20T14:17:24;2.80;99.90
41694;DHT22;27377;50.666;9.150;2022-11-20T14:20:05;2.90;99.90
41694;DHT22;27377;50.666;9.150;2022-11-20T14:22:34;2.80;99.90
41694;DHT22;27377;50.666;9.150;2022-11-20T14:25:17;2.90;99.90
41694;DHT22;27377;50.666;9.150;2022-11-20T14:27:46;2.80;99.90
41694;DHT22;27377;50.666;9.150;2022-11-20T14:30:29;2.80;99.90
41694;DHT22;27377;50.666;9.150;2022-11-20T14:33:02;2.90;99.90
41694;DHT22;27377;50.666;9.150;2022-11-20T14:35:35;2.90;99.90
41694;DHT22;27377;50.666;9.150;2022-11-20T14:38:02;2.90;99.90
41694;DHT22;27377;50.666;9.150;2022-11-20T14:40:36;2.90;99.90
41694;DHT22;27377;50.666;9.150;2022-11-20T14:43:15;2.90;99.90
41694;DHT22;27377;50.666;9.150;2022-11-20T14:45:41;2.80;99.90
41694;DHT22;27377;50.666;9.150;2022-11-20T14:48:12;2.90;99.90
41694;DHT22;27377;50.666;9.150;2022-11-20T14:50:38;2.90;99.90
41694;DHT22;27377;50.666;9.150;2022-11-20T14:53:04;2.90;99.90
41694;DHT22;27377;50.666;9.150;2022-11-20T14:58:19;2.90;99.90
41694;DHT22;27377;50.666;9.150;2022-11-20T15:00:57;2.90;99.90
41694;DHT22;27377;50.666;9.150;2022-11-20T15:03:23;2.90;99.90
41694;DHT22;27377;50.666;9.150;2022-11-20T15:05:56;2.90;99.90
41694;DHT22;27377;50.666;9.150;2022-11-20T15:08:24;2.90;99.90
41694;DHT22;27377;50.666;9.150;2022-11-20T15:10:51;2.90;99.90
41694;DHT22;27377;50.666;9.150;2022-11-20T15:13:25;2.90;99.90
41694;DHT22;27377;50.666;9.150;2022-11-20T15:15:54;2.90;99.90
41694;DHT22;27377;50.666;9.150;2022-11-20T15:18:29;2.90;99.90
41694;DHT22;27377;50.666;9.150;2022-11-20T15:20:57;2.90;99.90
41694;DHT22;27377;50.666;9.150;2022-11-20T15:23:23;2.90;99.90
41694;DHT22;27377;50.666;9.150;2022-11-20T15:25:53;2.90;99.90
41694;DHT22;27377;50.666;9.150;2022-11-20T15:28:29;2.90;99.90
41694;DHT22;27377;50.666;9.150;2022-11-20T15:30:56;2.90;99.90
41694;DHT22;27377;50.666;9.150;2022-11-20T15:33:22;3.00;99.90
41694;DHT22;27377;50.666;9.150;2022-11-20T15:35:47;2.90;99.90
41694;DHT22;27377;50.666;9.150;2022-11-20T15:38:13;2.90;99.90
41694;DHT22;27377;50.666;9.150;2022-11-20T15:40:39;2.90;99.90
41694;DHT22;27377;50.666;9.150;2022-11-20T15:43:04;2.90;99.90
41694;DHT22;27377;50.666;9.150;2022-11-20T15:45:40;2.90;99.90
41694;DHT22;27377;50.666;9.150;2022-11-20T15:48:16;2.80;99.90
41694;DHT22;27377;50.666;9.150;2022-11-20T15:51:07;2.80;99.90
41694;DHT22;27377;50.666;9.150;2022-11-20T15:53:41;2.80;99.90
41694;DHT22;27377;50.666;9.150;2022-11-20T15:56:12;2.80;99.90
41694;DHT22;27377;50.666;9.150;2022-11-20T15:58:38;2.80;99.90
41694;DHT22;27377;50.666;9.150;2022-11-20T16:01:10;2.80;99.90
41694;DHT22;27377;50.666;9.150;2022-11-20T16:03:36;2.80;99.90
41694;DHT22;27377;50.666;9.150;2022-11-20T16:06:01;2.80;99.90
41694;DHT22;27377;50.666;9.150;2022-11-20T16:08:27;2.80;99.90
41694;DHT22;27377;50.666;9.150;2022-11-20T16:10:52;2.80;99.90
41694;DHT22;27377;50.666;9.150;2022-11-20T16:13:18;2.80;99.90
41694;DHT22;27377;50.666;9.150;2022-11-20T16:16:26;2.80;99.90
41694;DHT22;27377;50.666;9.150;2022-11-20T16:18:54;2.80;99.90
41694;DHT22;27377;50.666;9.150;2022-11-20T16:21:20;2.80;99.90
41694;DHT22;27377;50.666;9.150;2022-11-20T16:23:46;2.80;99.90
41694;DHT22;27377;50.666;9.150;2022-11-20T16:26:13;2.80;99.90
41694;DHT22;27377;50.666;9.150;2022-11-20T16:28:39;2.70;99.90
41694;DHT22;27377;50.666;9.150;2022-11-20T16:31:23;2.80;99.90
41694;DHT22;27377;50.666;9.150;2022-11-20T16:33:53;2.80;99.90
41694;DHT22;27377;50.666;9.150;2022-11-20T16:36:21;2.80;99.90
41694;DHT22;27377;50.666;9.150;2022-11-20T16:38:55;2.80;99.90
41694;DHT22;27377;50.666;9.150;2022-11-20T16:41:21;2.80;99.90
41694;DHT22;27377;50.666;9.150;2022-11-20T16:43:55;2.80;99.90
41694;DHT22;27377;50.666;9.150;2022-11-20T16:46:26;2.80;99.90
41694;DHT22;27377;50.666;9.150;2022-11-20T16:48:57;2.70;99.90
41694;DHT22;27377;50.666;9.150;2022-11-20T16:51:23;2.70;99.90
41694;DHT22;27377;50.666;9.150;2022-11-20T16:53:49;2.80;99.90
41694;DHT22;27377;50.666;9.150;2022-11-20T16:56:17;2.80;99.90
41694;DHT22;27377;50.666;9.150;2022-11-20T16:58:47;2.80;99.90
41694;DHT22;27377;50.666;9.150;2022-11-20T17:01:15;2.80;99.90
41694;DHT22;27377;50.666;9.150;2022-11-20T17:03:43;2.80;99.90
41694;DHT22;27377;50.666;9.150;2022-11-20T17:06:19;2.80;99.90
41694;DHT22;27377;50.666;9.150;2022-11-20T17:08:45;2.80;99.90
41694;DHT22;27377;50.666;9.150;2022-11-20T17:11:13;2.80;99.90
41694;DHT22;27377;50.666;9.150;2022-11-20T17:13:39;2.80;99.90